Decoded Metar for OMDW ( in ) (IATA:) | Meteo·Mobile Aviation Weather
aviador You're here:

OMDW Decoded Metar

in
Report Time2018-12-11 01:00:00
UTC Time2018-12-11 01:58:21
Flight Rules vfr VFR
Wind210° at 06 kt
W.Decomp.*RWY 12: 6.0 kt RCW
W.Rank210° ranks 15
Current wind is below 210° avg. (7.0)
Visibility9999 m
Phenomena:N/A
Clouds:N/A
Expected CloudBase > 1,200 ft AGL from Temp-Dew spread
CeilingNone
Temp21°C
Dew Point18°C (83% RH)
QNH1016 hPa
Raw Report
METAR OMDW 110100Z 21006KT CAVOK 21/18 Q1016 NOSIG=

Extra information for OMDW:More info

Social comments